Time;durP1;ratioP1;P1;durP2;ratioP2;P2;SDS_P1;SDS_P2;PMS_P1;PMS_P2;Temp;Humidity;BMP_temperature;BMP_pressure;BME280_temperature;BME280_humidity;BME280_pressure;Samples;Min_cycle;Max_cycle;Signal;HPM_P1;HPM_P2
2022/03/28 00:00:10;;;;;;;17.02;9.90;;;5.80;99.90;;;;;;7232402;32;20206;-58
2022/03/28 00:04:13;;;;;;;18.25;10.52;;;5.90;99.90;;;;;;7247716;32;20469;-59
2022/03/28 00:08:15;;;;;;;22.25;11.07;;;5.80;99.90;;;;;;7245172;32;20203;-59
2022/03/28 00:12:16;;;;;;;21.23;10.15;;;5.80;99.90;;;;;;7245772;32;20124;-58
2022/03/28 00:16:18;;;;;;;20.92;10.48;;;5.70;99.90;;;;;;7243215;32;20131;-58
2022/03/28 00:20:20;;;;;;;21.17;10.68;;;5.70;99.90;;;;;;7243373;32;20117;-59
2022/03/28 00:24:22;;;;;;;20.70;10.07;;;5.60;99.90;;;;;;7240236;32;20112;-58
2022/03/28 00:28:24;;;;;;;17.87;10.25;;;5.60;99.90;;;;;;7243436;32;20176;-59
2022/03/28 00:32:26;;;;;;;19.25;9.85;;;5.50;99.90;;;;;;7228715;32;20239;-58
2022/03/28 00:36:27;;;;;;;27.40;11.23;;;5.50;99.90;;;;;;7241170;32;21704;-58
2022/03/28 00:40:31;;;;;;;19.35;10.52;;;5.40;99.90;;;;;;7242853;32;20112;-59
2022/03/28 00:44:34;;;;;;;16.83;10.43;;;5.40;99.90;;;;;;7244317;32;20138;-59
2022/03/28 00:48:38;;;;;;;22.23;11.55;;;5.30;99.90;;;;;;7242362;32;20186;-59
2022/03/28 00:52:40;;;;;;;22.35;11.00;;;5.30;99.90;;;;;;7242701;32;20847;-58
2022/03/28 00:56:45;;;;;;;19.02;10.05;;;5.20;99.90;;;;;;7240306;32;20138;-58
2022/03/28 01:00:47;;;;;;;21.67;11.20;;;5.20;99.90;;;;;;7241022;32;20218;-58
2022/03/28 01:04:50;;;;;;;20.00;11.02;;;5.20;99.90;;;;;;7225173;32;20284;-59
2022/03/28 01:08:52;;;;;;;20.90;10.73;;;5.20;99.90;;;;;;7222009;32;20485;-58
2022/03/28 01:12:54;;;;;;;22.70;11.23;;;5.20;99.90;;;;;;7238159;32;20239;-59
2022/03/28 01:21:19;;;;;;;19.10;10.52;;;5.10;99.90;;;;;;7235514;32;20112;-59
2022/03/28 01:25:24;;;;;;;21.37;10.80;;;5.10;99.90;;;;;;7237829;32;20158;-58
2022/03/28 01:29:26;;;;;;;20.85;11.30;;;5.10;99.90;;;;;;7242605;32;20126;-58
2022/03/28 01:33:31;;;;;;;19.85;10.50;;;5.10;99.90;;;;;;7239606;32;20105;-58
2022/03/28 01:37:32;;;;;;;18.58;10.55;;;5.10;99.90;;;;;;7238485;32;20234;-58
2022/03/28 01:41:34;;;;;;;19.65;10.23;;;5.10;99.90;;;;;;7240650;32;20210;-58
2022/03/28 01:45:36;;;;;;;19.05;10.07;;;5.10;99.90;;;;;;7233689;32;20187;-58
2022/03/28 01:49:37;;;;;;;23.48;10.38;;;5.00;99.90;;;;;;7244328;32;20237;-58
2022/03/28 01:53:39;;;;;;;18.90;10.23;;;5.00;99.90;;;;;;7236139;32;20113;-59
2022/03/28 01:57:42;;;;;;;16.62;10.70;;;5.00;99.90;;;;;;7232224;32;20116;-58
2022/03/28 02:01:44;;;;;;;24.67;10.77;;;4.90;99.90;;;;;;7236986;32;20139;-58
2022/03/28 02:05:46;;;;;;;19.52;9.75;;;4.90;99.90;;;;;;7242745;32;20135;-58
2022/03/28 02:09:47;;;;;;;17.50;9.82;;;4.90;99.90;;;;;;7238953;32;20109;-58
2022/03/28 02:13:49;;;;;;;20.42;10.05;;;4.90;99.90;;;;;;7233314;32;20143;-58
2022/03/28 02:17:50;;;;;;;23.23;11.07;;;4.90;99.90;;;;;;7234598;32;20134;-58
2022/03/28 02:21:52;;;;;;;16.77;9.93;;;4.90;99.90;;;;;;7245927;32;20179;-58
2022/03/28 02:25:54;;;;;;;20.08;9.90;;;4.80;99.90;;;;;;7245709;32;22193;-59
2022/03/28 02:29:55;;;;;;;19.15;10.30;;;4.80;99.90;;;;;;7245110;32;20498;-58
2022/03/28 02:33:57;;;;;;;19.75;9.85;;;4.80;99.90;;;;;;7235789;32;20172;-59
2022/03/28 02:38:01;;;;;;;20.12;10.25;;;4.70;99.90;;;;;;7243506;32;20496;-58
2022/03/28 02:42:04;;;;;;;19.75;9.77;;;4.70;99.90;;;;;;7241230;32;20220;-58
2022/03/28 02:46:05;;;;;;;23.40;10.48;;;4.70;99.90;;;;;;7244902;32;20613;-58
2022/03/28 02:50:08;;;;;;;22.65;10.68;;;4.70;99.90;;;;;;7243181;32;20228;-59
2022/03/28 02:54:10;;;;;;;21.10;10.52;;;4.70;99.90;;;;;;7238272;32;20112;-59
2022/03/28 02:58:12;;;;;;;20.37;10.20;;;4.60;99.90;;;;;;7238919;32;20729;-59
2022/03/28 03:02:14;;;;;;;18.65;10.18;;;4.60;99.90;;;;;;7235981;32;20116;-59
2022/03/28 03:06:16;;;;;;;19.62;10.90;;;4.60;99.90;;;;;;7244728;32;20603;-59
2022/03/28 03:10:17;;;;;;;18.92;9.80;;;4.50;99.90;;;;;;7241662;32;20135;-59
2022/03/28 03:14:19;;;;;;;18.98;10.15;;;4.50;99.90;;;;;;7243203;32;20151;-59
2022/03/28 03:18:21;;;;;;;18.77;10.07;;;4.40;99.90;;;;;;7222252;32;20377;-61
2022/03/28 03:22:23;;;;;;;16.83;9.35;;;4.40;99.90;;;;;;7240662;32;20124;-58
2022/03/28 03:26:24;;;;;;;18.98;9.43;;;4.40;99.90;;;;;;7235754;32;20528;-58
2022/03/28 03:30:26;;;;;;;17.60;9.68;;;4.30;99.90;;;;;;7242307;32;20196;-58
2022/03/28 03:34:28;;;;;;;20.98;10.43;;;4.30;99.90;;;;;;7241300;32;20548;-58
2022/03/28 03:38:30;;;;;;;17.00;8.65;;;4.30;99.90;;;;;;7241350;32;20257;-58
2022/03/28 03:42:32;;;;;;;19.90;9.68;;;4.20;99.90;;;;;;7217621;32;20116;-60
2022/03/28 03:46:33;;;;;;;19.45;10.90;;;4.20;99.90;;;;;;7228453;32;20116;-58
2022/03/28 03:50:41;;;;;;;19.95;9.57;;;4.20;99.90;;;;;;7222896;32;20256;-58
2022/03/28 03:54:43;;;;;;;24.02;9.73;;;4.10;99.90;;;;;;7235308;32;20496;-58
2022/03/28 03:58:45;;;;;;;18.50;10.18;;;4.10;99.90;;;;;;7242158;32;20196;-58
2022/03/28 04:02:46;;;;;;;20.00;10.52;;;4.20;99.90;;;;;;7237845;32;20651;-60
2022/03/28 04:06:48;;;;;;;23.17;10.25;;;4.20;99.90;;;;;;7247975;32;20473;-57
2022/03/28 04:10:50;;;;;;;23.30;10.15;;;4.10;99.90;;;;;;7240895;32;20129;-58
2022/03/28 04:14:53;;;;;;;18.95;9.90;;;4.10;99.90;;;;;;7250331;32;20547;-57
2022/03/28 04:18:55;;;;;;;18.90;9.27;;;4.10;99.90;;;;;;7242193;32;20365;-58
2022/03/28 04:22:56;;;;;;;18.60;10.18;;;4.10;99.90;;;;;;7241237;32;20258;-58
2022/03/28 04:26:58;;;;;;;18.58;9.80;;;4.00;99.90;;;;;;7240963;32;20131;-58
2022/03/28 04:31:00;;;;;;;21.27;10.25;;;4.00;99.90;;;;;;7242467;32;20108;-57
2022/03/28 04:35:04;;;;;;;17.58;9.27;;;4.00;99.90;;;;;;7242211;32;20563;-58
2022/03/28 04:39:06;;;;;;;18.67;10.20;;;3.90;99.90;;;;;;7239481;32;20432;-57
2022/03/28 04:43:08;;;;;;;20.23;9.95;;;3.90;99.90;;;;;;7242306;32;20112;-58
2022/03/28 04:47:10;;;;;;;25.40;10.02;;;3.90;99.90;;;;;;7243555;32;20338;-57
2022/03/28 04:51:11;;;;;;;19.35;9.82;;;3.90;99.90;;;;;;7223254;32;20113;-57
2022/03/28 04:55:13;;;;;;;19.30;9.07;;;3.80;99.90;;;;;;7241717;32;20535;-58
2022/03/28 04:59:15;;;;;;;18.08;10.05;;;3.80;99.90;;;;;;7226466;32;20699;-58
2022/03/28 05:03:16;;;;;;;17.85;9.27;;;3.70;99.90;;;;;;7243272;32;20127;-58
2022/03/28 05:07:29;;;;;;;17.95;9.13;;;3.70;99.90;;;;;;7246414;32;22089;-58
2022/03/28 05:11:31;;;;;;;19.55;9.43;;;3.80;99.90;;;;;;7241690;32;20618;-58
2022/03/28 05:15:33;;;;;;;21.00;9.48;;;3.70;99.90;;;;;;7242335;32;20331;-58
2022/03/28 05:19:34;;;;;;;19.37;10.15;;;3.70;99.90;;;;;;7242833;32;20112;-59
2022/03/28 05:23:36;;;;;;;21.35;10.45;;;3.70;99.90;;;;;;7247162;32;20861;-60
2022/03/28 05:27:42;;;;;;;18.10;9.23;;;3.70;99.90;;;;;;7241133;32;20143;-60
2022/03/28 05:31:44;;;;;;;17.60;9.60;;;3.70;99.90;;;;;;7239408;32;20131;-60
2022/03/28 05:35:46;;;;;;;20.23;10.27;;;3.80;99.90;;;;;;7235560;32;20341;-59
2022/03/28 05:39:48;;;;;;;18.35;10.13;;;3.70;99.90;;;;;;7238186;32;20327;-59
2022/03/28 05:43:50;;;;;;;20.67;10.82;;;3.70;99.90;;;;;;7243536;32;20144;-59
2022/03/28 05:47:52;;;;;;;20.83;9.85;;;3.80;99.90;;;;;;7241676;32;20112;-59
2022/03/28 05:51:53;;;;;;;19.90;9.90;;;3.70;99.90;;;;;;7246619;32;20281;-59
2022/03/28 05:55:55;;;;;;;21.37;10.32;;;3.80;99.90;;;;;;7245864;32;20147;-59
2022/03/28 05:59:57;;;;;;;20.30;9.60;;;3.90;99.90;;;;;;7244677;32;20139;-59
2022/03/28 06:03:59;;;;;;;21.00;9.63;;;4.00;99.90;;;;;;7241831;32;20175;-59
2022/03/28 06:08:00;;;;;;;21.50;10.65;;;4.00;99.90;;;;;;7243947;32;20156;-58
2022/03/28 06:12:02;;;;;;;17.40;9.77;;;4.10;99.90;;;;;;7243667;32;20139;-58
2022/03/28 06:16:04;;;;;;;20.70;9.80;;;4.20;99.90;;;;;;7235111;32;20120;-58
2022/03/28 06:20:07;;;;;;;18.83;11.10;;;4.30;99.90;;;;;;7245202;32;20210;-58
2022/03/28 06:24:09;;;;;;;20.52;10.27;;;4.40;99.90;;;;;;7246000;32;20139;-59
2022/03/28 06:28:12;;;;;;;19.58;10.60;;;4.50;99.90;;;;;;7246829;32;20104;-58
2022/03/28 06:32:14;;;;;;;19.17;10.00;;;4.60;99.90;;;;;;7246043;32;20113;-58
2022/03/28 06:36:15;;;;;;;20.62;10.35;;;4.70;99.90;;;;;;7246243;32;20195;-58
2022/03/28 06:40:17;;;;;;;23.23;11.52;;;4.90;99.90;;;;;;7239322;32;20129;-59
2022/03/28 06:44:19;;;;;;;20.27;10.35;;;5.00;99.90;;;;;;7236223;32;20124;-59
2022/03/28 06:48:21;;;;;;;21.98;11.45;;;5.20;99.90;;;;;;7242939;32;20489;-58
2022/03/28 06:52:38;;;;;;;21.95;11.60;;;5.30;99.90;;;;;;7238957;32;20116;-59
2022/03/28 06:56:40;;;;;;;22.25;11.90;;;5.50;99.90;;;;;;7231054;32;20128;-61
2022/03/28 07:00:41;;;;;;;21.42;12.80;;;5.70;99.90;;;;;;7227338;32;20132;-61
2022/03/28 07:04:44;;;;;;;21.98;9.88;;;5.90;99.90;;;;;;7238436;32;20104;-60
2022/03/28 07:08:45;;;;;;;26.95;12.37;;;6.10;99.90;;;;;;7242007;32;20756;-59
2022/03/28 07:12:47;;;;;;;16.30;9.90;;;6.30;99.90;;;;;;7238394;32;20139;-59
2022/03/28 07:16:49;;;;;;;20.83;11.43;;;6.50;99.90;;;;;;7237056;32;20240;-59
2022/03/28 07:20:50;;;;;;;20.37;11.10;;;6.70;99.90;;;;;;7241901;32;20116;-59
2022/03/28 07:24:52;;;;;;;21.20;11.73;;;6.90;99.90;;;;;;7241347;32;20236;-60
2022/03/28 07:28:58;;;;;;;24.92;13.13;;;7.10;99.90;;;;;;7239440;32;20131;-60
2022/03/28 07:33:01;;;;;;;24.37;13.35;;;7.40;99.90;;;;;;7238981;32;20121;-60
2022/03/28 07:37:06;;;;;;;32.55;17.65;;;7.70;99.90;;;;;;7227330;32;20112;-59
2022/03/28 07:41:08;;;;;;;37.10;19.27;;;7.90;99.90;;;;;;7239802;32;20218;-60
2022/03/28 07:45:10;;;;;;;32.05;19.75;;;8.50;99.90;;;;;;7237710;32;20215;-60
2022/03/28 07:49:13;;;;;;;29.92;18.70;;;9.10;99.90;;;;;;7238820;32;20105;-60
2022/03/28 07:53:15;;;;;;;31.42;18.73;;;9.40;99.90;;;;;;7238974;32;20227;-60
2022/03/28 07:57:18;;;;;;;29.23;16.80;;;9.70;99.90;;;;;;7237462;32;20199;-59
2022/03/28 08:01:19;;;;;;;25.08;16.83;;;10.10;99.90;;;;;;7232384;32;20112;-60
2022/03/28 08:05:22;;;;;;;28.38;16.95;;;10.30;99.90;;;;;;7241823;32;20170;-61
2022/03/28 08:09:24;;;;;;;27.87;16.52;;;10.50;99.90;;;;;;7233958;32;20687;-60
2022/03/28 08:13:25;;;;;;;25.75;15.82;;;11.30;99.90;;;;;;7238525;32;20202;-60
2022/03/28 08:17:27;;;;;;;25.92;15.43;;;12.10;99.90;;;;;;7241234;32;20815;-60
2022/03/28 08:21:29;;;;;;;22.67;14.87;;;13.10;99.90;;;;;;7233159;32;20132;-60
2022/03/28 08:25:32;;;;;;;24.73;16.65;;;14.00;99.90;;;;;;7234062;32;20204;-60
2022/03/28 08:29:34;;;;;;;26.55;17.65;;;14.80;99.90;;;;;;7242172;32;20112;-61
2022/03/28 08:33:36;;;;;;;26.70;18.75;;;15.50;99.90;;;;;;7242870;32;20192;-59
2022/03/28 08:37:38;;;;;;;25.62;17.40;;;16.30;99.90;;;;;;7242104;32;20531;-60
2022/03/28 08:41:49;;;;;;;28.70;18.58;;;16.80;99.90;;;;;;7242540;32;20104;-62
2022/03/28 08:45:51;;;;;;;26.42;17.45;;;17.60;99.90;;;;;;7240461;32;20139;-61
2022/03/28 08:49:54;;;;;;;27.17;17.77;;;17.70;99.90;;;;;;7242990;32;20244;-63
2022/03/28 08:53:56;;;;;;;26.17;18.17;;;18.00;99.90;;;;;;7241575;32;20616;-61
2022/03/28 08:57:58;;;;;;;27.80;19.05;;;18.10;99.90;;;;;;7240764;32;20191;-62
2022/03/28 09:01:59;;;;;;;25.67;18.20;;;18.00;99.90;;;;;;7235998;32;20631;-62
2022/03/28 09:06:21;;;;;;;30.00;19.05;;;17.50;99.90;;;;;;7234365;32;20253;-61
2022/03/28 09:10:23;;;;;;;25.05;18.35;;;18.00;99.90;;;;;;7235995;32;20131;-61
2022/03/28 09:14:34;;;;;;;30.27;18.90;;;18.60;99.90;;;;;;7242312;32;20662;-61
2022/03/28 09:18:36;;;;;;;25.88;18.20;;;18.60;99.90;;;;;;7241496;32;20231;-61
2022/03/28 09:22:41;;;;;;;23.48;17.87;;;19.20;99.90;;;;;;7242142;32;20117;-62
2022/03/28 09:26:43;;;;;;;27.05;19.48;;;19.30;99.90;;;;;;7221231;32;20200;-61
2022/03/28 09:30:44;;;;;;;24.20;18.08;;;18.80;99.90;;;;;;7248364;32;20200;-60
2022/03/28 09:35:00;;;;;;;24.98;19.17;;;19.00;99.90;;;;;;7239201;32;20191;-62
2022/03/28 09:39:04;;;;;;;27.55;18.62;;;20.10;99.90;;;;;;7240615;32;20138;-61
2022/03/28 09:43:16;;;;;;;29.05;20.42;;;20.60;99.90;;;;;;7245885;32;20878;-60
2022/03/28 09:47:24;;;;;;;29.73;19.52;;;20.60;99.90;;;;;;7241370;32;20200;-62
2022/03/28 09:51:28;;;;;;;26.87;18.62;;;21.50;98.30;;;;;;7249441;32;20211;-61
2022/03/28 09:55:55;;;;;;;26.30;19.30;;;21.40;96.80;;;;;;7248698;32;20298;-61
2022/03/28 10:00:12;;;;;;;27.08;17.75;;;21.80;95.90;;;;;;7244882;32;20229;-61
2022/03/28 10:04:15;;;;;;;25.45;18.83;;;22.50;95.10;;;;;;7246939;32;20180;-61
2022/03/28 10:08:18;;;;;;;24.85;17.42;;;22.00;91.50;;;;;;7247109;32;20225;-61
2022/03/28 10:12:26;;;;;;;23.02;17.65;;;22.80;93.20;;;;;;7238041;32;20518;-62
2022/03/28 10:16:28;;;;;;;27.23;18.98;;;23.80;85.10;;;;;;7249741;32;20135;-61
2022/03/28 10:20:30;;;;;;;26.55;19.50;;;24.20;77.40;;;;;;7249602;32;20109;-60
2022/03/28 10:24:41;;;;;;;30.00;20.67;;;23.90;77.80;;;;;;7243419;32;20131;-61
2022/03/28 10:29:04;;;;;;;26.40;19.92;;;24.60;74.10;;;;;;7245012;32;20116;-61
2022/03/28 10:33:16;;;;;;;25.95;19.23;;;24.60;71.70;;;;;;7245528;32;20124;-61
2022/03/28 10:37:48;;;;;;;25.33;19.55;;;24.90;71.50;;;;;;7243261;32;20300;-60
2022/03/28 10:41:50;;;;;;;25.52;20.02;;;25.30;71.60;;;;;;7243159;32;20786;-60
2022/03/28 10:45:52;;;;;;;28.87;20.85;;;25.70;65.50;;;;;;7244586;32;20116;-60
2022/03/28 10:49:54;;;;;;;24.60;20.42;;;25.00;68.40;;;;;;7230541;32;20216;-59
2022/03/28 10:53:59;;;;;;;32.50;22.25;;;24.30;71.90;;;;;;7243897;32;20117;-60
2022/03/28 10:58:31;;;;;;;28.60;21.27;;;24.70;70.50;;;;;;7242459;32;20121;-60
2022/03/28 11:02:33;;;;;;;30.17;20.60;;;24.20;69.60;;;;;;7228982;32;20211;-61
2022/03/28 11:06:46;;;;;;;28.60;20.85;;;23.80;72.30;;;;;;7243010;32;20709;-60
2022/03/28 11:11:23;;;;;;;26.48;21.33;;;23.30;74.90;;;;;;7243244;32;20160;-61
2022/03/28 11:15:25;;;;;;;28.40;22.02;;;23.40;73.50;;;;;;7238754;32;20215;-60
2022/03/28 11:19:30;;;;;;;33.28;22.98;;;21.60;80.30;;;;;;7240353;32;20837;-60
2022/03/28 11:23:37;;;;;;;31.98;23.35;;;20.40;90.90;;;;;;7242843;32;20108;-60
2022/03/28 11:27:39;;;;;;;29.83;21.62;;;20.20;92.20;;;;;;7239765;32;20166;-56
2022/03/28 11:31:41;;;;;;;32.17;20.60;;;20.70;91.50;;;;;;7241393;32;20622;-56
2022/03/28 11:35:55;;;;;;;29.87;21.87;;;20.60;92.00;;;;;;7239523;32;20109;-56
2022/03/28 11:40:03;;;;;;;35.28;23.60;;;20.60;91.80;;;;;;7236981;32;20551;-56
2022/03/28 11:44:05;;;;;;;31.33;20.98;;;19.50;95.00;;;;;;7235456;32;20202;-56
2022/03/28 11:48:07;;;;;;;33.67;24.15;;;19.70;95.70;;;;;;7240897;32;20253;-57
2022/03/28 11:52:09;;;;;;;32.95;22.25;;;19.90;93.70;;;;;;7239120;32;20258;-56
2022/03/28 11:56:21;;;;;;;29.58;21.20;;;20.20;93.50;;;;;;7235784;32;20579;-56
2022/03/28 12:00:24;;;;;;;32.63;22.30;;;20.40;92.90;;;;;;7242477;32;20231;-56
2022/03/28 12:04:27;;;;;;;29.02;21.75;;;20.10;93.30;;;;;;7242229;32;20129;-56
2022/03/28 12:08:31;;;;;;;30.67;21.48;;;20.90;91.10;;;;;;7245132;32;20890;-57
2022/03/28 12:12:34;;;;;;;32.05;22.60;;;20.90;90.50;;;;;;7247617;32;20126;-57
2022/03/28 12:16:47;;;;;;;29.75;20.73;;;20.80;88.10;;;;;;7247606;32;20227;-57
2022/03/28 12:20:53;;;;;;;31.42;22.62;;;20.80;92.10;;;;;;7245599;32;20120;-56
2022/03/28 12:24:56;;;;;;;30.57;22.47;;;20.50;91.10;;;;;;7236242;32;20105;-57
2022/03/28 12:28:59;;;;;;;32.13;22.05;;;20.10;91.20;;;;;;7242401;32;20116;-56
2022/03/28 12:33:21;;;;;;;32.95;23.00;;;20.40;91.40;;;;;;7239701;32;20243;-56
2022/03/28 12:37:26;;;;;;;29.83;20.90;;;20.20;92.00;;;;;;7238828;32;20422;-56
2022/03/28 12:41:28;;;;;;;31.30;21.02;;;19.90;93.30;;;;;;7238365;32;20115;-56
2022/03/28 12:45:31;;;;;;;32.30;21.98;;;19.00;94.70;;;;;;7238573;32;20420;-56
2022/03/28 12:49:43;;;;;;;31.87;21.40;;;19.10;97.50;;;;;;7239872;32;20584;-56
2022/03/28 12:53:46;;;;;;;31.80;21.85;;;18.90;96.40;;;;;;7239353;32;20108;-57
2022/03/28 12:57:51;;;;;;;37.38;22.90;;;19.40;94.80;;;;;;7239188;32;20124;-57
2022/03/28 13:02:04;;;;;;;34.35;22.13;;;19.20;94.40;;;;;;7237027;32;20206;-57
2022/03/28 13:06:11;;;;;;;30.95;19.20;;;19.50;94.40;;;;;;7239385;32;20453;-57
2022/03/28 13:10:22;;;;;;;29.92;20.55;;;19.60;94.30;;;;;;7237406;32;20129;-57
2022/03/28 13:14:27;;;;;;;33.10;20.33;;;19.70;94.10;;;;;;7238825;32;20765;-56
2022/03/28 13:18:28;;;;;;;32.67;22.27;;;19.50;93.30;;;;;;7236432;32;20254;-58
2022/03/28 13:22:38;;;;;;;33.45;21.42;;;19.30;93.60;;;;;;7236291;32;20842;-56
2022/03/28 13:26:45;;;;;;;30.37;21.55;;;19.40;95.10;;;;;;7234788;32;20278;-57
2022/03/28 13:30:51;;;;;;;34.22;22.87;;;19.60;93.20;;;;;;7238961;32;20273;-60
2022/03/28 13:34:52;;;;;;;35.60;22.95;;;19.70;93.20;;;;;;7239910;32;20611;-60
2022/03/28 13:38:54;;;;;;;34.90;21.87;;;19.80;93.40;;;;;;7238664;32;20200;-61
2022/03/28 13:42:59;;;;;;;38.22;22.17;;;19.40;94.40;;;;;;7238005;32;20196;-60
2022/03/28 13:47:01;;;;;;;31.45;21.48;;;19.60;93.40;;;;;;7237955;32;20113;-60
2022/03/28 13:51:03;;;;;;;32.92;21.77;;;19.30;92.80;;;;;;7247115;32;20147;-59
2022/03/28 13:55:25;;;;;;;33.92;21.23;;;19.80;93.10;;;;;;7244619;32;20101;-60
2022/03/28 13:59:27;;;;;;;34.53;22.35;;;19.50;92.70;;;;;;7243008;32;20140;-63
2022/03/28 14:03:29;;;;;;;31.25;21.92;;;19.50;93.80;;;;;;7229562;32;20112;-61
2022/03/28 14:07:31;;;;;;;33.28;22.55;;;19.30;94.00;;;;;;7245020;32;20167;-60
2022/03/28 14:11:35;;;;;;;31.92;20.65;;;19.30;94.60;;;;;;7247353;32;20671;-60
2022/03/28 14:15:37;;;;;;;33.95;21.50;;;19.20;92.00;;;;;;7235129;32;20112;-63
2022/03/28 14:19:41;;;;;;;38.38;21.70;;;19.30;94.10;;;;;;7247042;32;20316;-62
2022/03/28 14:23:43;;;;;;;34.58;22.27;;;19.70;94.30;;;;;;7248807;32;20126;-60
2022/03/28 14:27:45;;;;;;;29.50;19.92;;;19.50;92.70;;;;;;7242950;32;20112;-61
2022/03/28 14:31:48;;;;;;;33.75;21.27;;;19.60;92.30;;;;;;7246192;32;20105;-60
2022/03/28 14:35:49;;;;;;;31.25;21.02;;;19.90;91.40;;;;;;7248570;32;20112;-61
2022/03/28 14:39:51;;;;;;;37.15;21.87;;;19.60;91.90;;;;;;7248124;32;20146;-59
2022/03/28 14:43:53;;;;;;;33.13;22.20;;;19.90;90.70;;;;;;7242074;32;20162;-61
2022/03/28 14:48:05;;;;;;;34.58;21.37;;;19.60;91.60;;;;;;7241989;32;20208;-61
2022/03/28 14:52:08;;;;;;;30.23;20.17;;;19.10;92.50;;;;;;7245649;32;20172;-60
2022/03/28 14:56:10;;;;;;;36.22;21.83;;;19.00;92.30;;;;;;7253636;32;20108;-60
2022/03/28 15:00:28;;;;;;;34.17;21.30;;;18.50;93.80;;;;;;7242087;32;20147;-59
2022/03/28 15:04:30;;;;;;;39.63;23.23;;;18.30;95.40;;;;;;7248501;32;20207;-61
2022/03/28 15:08:32;;;;;;;41.17;22.42;;;18.10;98.00;;;;;;7253370;32;20523;-60
2022/03/28 15:12:34;;;;;;;33.95;21.20;;;17.90;97.30;;;;;;7245927;32;20112;-62
2022/03/28 15:16:41;;;;;;;36.45;22.37;;;17.80;97.80;;;;;;7248537;32;20176;-60
2022/03/28 15:20:44;;;;;;;36.83;21.40;;;17.50;98.60;;;;;;7243637;32;20104;-60
2022/03/28 15:24:46;;;;;;;35.28;22.13;;;17.30;99.50;;;;;;7244246;32;20131;-61
2022/03/28 15:28:47;;;;;;;38.75;22.48;;;17.10;99.90;;;;;;7241986;32;20262;-58
2022/03/28 15:32:50;;;;;;;37.47;22.20;;;16.90;99.90;;;;;;7241318;32;20113;-60
2022/03/28 15:36:53;;;;;;;38.85;22.58;;;16.80;99.90;;;;;;7248265;32;20120;-60
2022/03/28 15:40:55;;;;;;;37.25;21.60;;;16.90;99.90;;;;;;7242402;32;20208;-62
2022/03/28 15:44:56;;;;;;;35.28;21.65;;;16.80;99.90;;;;;;7244967;32;20256;-59
2022/03/28 15:49:02;;;;;;;36.17;20.70;;;16.60;99.90;;;;;;7239923;32;20182;-62
2022/03/28 15:53:04;;;;;;;34.70;21.87;;;16.70;99.90;;;;;;7245376;32;20112;-60
2022/03/28 15:57:05;;;;;;;34.90;20.75;;;16.70;99.90;;;;;;7247601;32;20127;-59
2022/03/28 16:05:29;;;;;;;37.15;21.45;;;16.40;99.90;;;;;;7251819;32;20235;-60
2022/03/28 16:09:31;;;;;;;33.63;21.40;;;16.30;99.90;;;;;;7240159;32;20228;-59
2022/03/28 16:13:33;;;;;;;43.42;22.40;;;16.30;99.90;;;;;;7244038;32;20250;-60
2022/03/28 16:17:38;;;;;;;30.75;19.42;;;16.30;99.90;;;;;;7243837;32;20167;-62
2022/03/28 16:21:42;;;;;;;36.75;21.52;;;16.20;99.90;;;;;;7239823;32;20175;-61
2022/03/28 16:25:44;;;;;;;33.45;20.20;;;15.90;99.90;;;;;;7242537;32;20160;-61
2022/03/28 16:29:45;;;;;;;34.15;20.83;;;15.70;99.90;;;;;;7246751;32;20147;-59
2022/03/28 16:33:47;;;;;;;32.20;20.75;;;15.70;99.90;;;;;;7243726;32;20456;-61
2022/03/28 16:37:49;;;;;;;33.97;20.23;;;15.80;99.90;;;;;;7241343;32;20301;-62
2022/03/28 16:41:50;;;;;;;37.47;19.12;;;15.80;99.90;;;;;;7238395;32;20135;-57
2022/03/28 16:45:57;;;;;;;33.58;19.20;;;15.60;99.90;;;;;;7245430;32;20215;-60
2022/03/28 16:49:58;;;;;;;32.20;19.17;;;15.40;99.90;;;;;;7234643;32;20540;-58
2022/03/28 16:54:02;;;;;;;31.20;18.87;;;15.10;99.90;;;;;;7240229;32;20109;-57
2022/03/28 16:58:04;;;;;;;34.17;19.37;;;15.10;99.90;;;;;;7249727;32;20112;-61
2022/03/28 17:02:06;;;;;;;35.30;18.40;;;15.00;99.90;;;;;;7239656;32;20206;-62
2022/03/28 17:06:08;;;;;;;29.48;17.92;;;14.90;99.90;;;;;;7242462;32;20200;-59
2022/03/28 17:10:10;;;;;;;33.83;18.90;;;14.80;99.90;;;;;;7239652;32;20358;-61
2022/03/28 17:14:12;;;;;;;37.97;20.62;;;14.60;99.90;;;;;;7243891;32;20156;-62
2022/03/28 17:18:14;;;;;;;32.25;19.62;;;14.60;99.90;;;;;;7239379;32;20208;-59
2022/03/28 17:22:16;;;;;;;32.85;17.85;;;14.40;99.90;;;;;;7241971;32;20831;-59
2022/03/28 17:26:18;;;;;;;31.65;18.42;;;14.30;99.90;;;;;;7240746;32;20211;-60
2022/03/28 17:30:21;;;;;;;34.47;18.45;;;14.00;99.90;;;;;;7234146;32;20104;-61
2022/03/28 17:34:24;;;;;;;31.55;18.10;;;13.70;99.90;;;;;;7239477;32;20108;-63
2022/03/28 17:38:25;;;;;;;31.35;17.15;;;13.60;99.90;;;;;;7238148;32;20147;-61
2022/03/28 17:42:27;;;;;;;33.33;18.65;;;13.50;99.90;;;;;;7239350;32;20311;-61
2022/03/28 17:46:29;;;;;;;32.35;17.92;;;13.30;99.90;;;;;;7240384;32;20610;-63
2022/03/28 17:50:31;;;;;;;37.85;18.87;;;13.20;99.90;;;;;;7241660;32;20105;-63
2022/03/28 17:54:33;;;;;;;37.33;17.67;;;13.00;99.90;;;;;;7240545;32;20166;-61
2022/03/28 17:58:35;;;;;;;31.70;17.17;;;13.00;99.90;;;;;;7243859;32;20256;-64
2022/03/28 18:02:37;;;;;;;34.08;18.23;;;12.80;99.90;;;;;;7238507;32;20215;-63
2022/03/28 18:06:39;;;;;;;30.98;17.83;;;12.70;99.90;;;;;;7246649;32;20535;-60
2022/03/28 18:10:41;;;;;;;35.88;17.85;;;12.60;99.90;;;;;;7239393;32;20238;-60
2022/03/28 18:14:42;;;;;;;37.33;16.98;;;12.40;99.90;;;;;;7243308;32;20117;-61
2022/03/28 18:18:45;;;;;;;31.60;17.20;;;12.40;99.90;;;;;;7236712;32;20962;-61
2022/03/28 18:22:46;;;;;;;34.85;19.52;;;12.30;99.90;;;;;;7241024;32;20146;-60
2022/03/28 18:26:48;;;;;;;31.30;16.55;;;12.10;99.90;;;;;;7247450;32;20147;-61
2022/03/28 18:30:51;;;;;;;27.77;15.77;;;12.00;99.90;;;;;;7245946;32;20188;-60
2022/03/28 18:34:53;;;;;;;29.63;16.77;;;11.80;99.90;;;;;;7246873;32;20138;-60
2022/03/28 18:38:55;;;;;;;33.03;17.02;;;11.70;99.90;;;;;;7251320;32;20240;-62
2022/03/28 18:42:57;;;;;;;28.83;16.37;;;11.60;99.90;;;;;;7247873;32;20693;-61
2022/03/28 18:47:00;;;;;;;26.15;16.05;;;11.50;99.90;;;;;;7245282;32;20207;-60
2022/03/28 18:51:02;;;;;;;27.90;16.17;;;11.30;99.90;;;;;;7244370;32;20136;-61
2022/03/28 18:55:05;;;;;;;32.78;17.08;;;11.20;99.90;;;;;;7246470;32;20120;-61
2022/03/28 18:59:07;;;;;;;27.50;16.25;;;11.00;99.90;;;;;;7236641;32;20132;-63
2022/03/28 19:03:10;;;;;;;30.37;16.27;;;10.80;99.90;;;;;;7243610;32;20238;-62
2022/03/28 19:07:12;;;;;;;29.77;16.37;;;10.60;99.90;;;;;;7247586;32;20147;-60
2022/03/28 19:11:16;;;;;;;33.10;17.30;;;10.50;99.90;;;;;;7241321;32;20226;-60
2022/03/28 19:15:33;;;;;;;28.02;15.80;;;10.30;99.90;;;;;;7241944;32;20583;-61
2022/03/28 19:19:35;;;;;;;35.03;16.80;;;10.20;99.90;;;;;;7236156;32;20104;-63
2022/03/28 19:23:37;;;;;;;33.60;15.73;;;10.10;99.90;;;;;;7251523;32;20105;-61
2022/03/28 19:27:41;;;;;;;36.08;16.27;;;10.00;99.90;;;;;;7245782;32;20293;-62
2022/03/28 19:31:43;;;;;;;34.80;16.08;;;9.80;99.90;;;;;;7245221;32;20235;-62
2022/03/28 19:35:45;;;;;;;36.75;16.17;;;9.70;99.90;;;;;;7244656;32;20116;-61
2022/03/28 19:39:47;;;;;;;28.02;16.90;;;9.50;99.90;;;;;;7247489;32;20246;-61
2022/03/28 19:43:49;;;;;;;33.67;17.67;;;9.50;99.90;;;;;;7241933;32;20140;-62
2022/03/28 19:47:50;;;;;;;34.03;20.40;;;9.40;99.90;;;;;;7240449;32;20143;-62
2022/03/28 19:51:52;;;;;;;32.83;17.40;;;9.40;99.90;;;;;;7248657;32;20140;-61
2022/03/28 19:56:14;;;;;;;30.35;15.68;;;9.30;99.90;;;;;;7244628;32;20464;-64
2022/03/28 20:00:16;;;;;;;36.55;16.23;;;9.20;99.90;;;;;;7243742;32;20560;-60
2022/03/28 20:04:18;;;;;;;30.95;15.75;;;9.00;99.90;;;;;;7246819;32;20515;-62
2022/03/28 20:08:20;;;;;;;31.77;15.93;;;9.00;99.90;;;;;;7245880;32;20131;-62
2022/03/28 20:12:22;;;;;;;28.15;15.77;;;8.80;99.90;;;;;;7245742;32;20129;-61
2022/03/28 20:16:24;;;;;;;27.40;14.95;;;8.70;99.90;;;;;;7246089;32;20135;-65
2022/03/28 20:20:26;;;;;;;32.38;15.25;;;8.60;99.90;;;;;;7246410;32;20127;-62
2022/03/28 20:24:30;;;;;;;26.60;15.07;;;8.60;99.90;;;;;;7246635;32;20490;-64
2022/03/28 20:28:34;;;;;;;34.60;16.05;;;8.50;99.90;;;;;;7241619;32;20117;-63
2022/03/28 20:32:36;;;;;;;30.02;15.35;;;8.50;99.90;;;;;;7247047;32;20298;-63
2022/03/28 20:36:38;;;;;;;29.48;15.23;;;8.50;99.90;;;;;;7251124;32;20791;-62
2022/03/28 20:40:39;;;;;;;29.25;13.88;;;8.40;99.90;;;;;;7240856;32;20679;-63
2022/03/28 20:44:41;;;;;;;32.60;14.90;;;8.30;99.90;;;;;;7243912;32;20792;-61
2022/03/28 20:48:43;;;;;;;31.67;14.98;;;8.20;99.90;;;;;;7229691;32;20112;-62
2022/03/28 20:52:44;;;;;;;27.77;14.98;;;8.10;99.90;;;;;;7244469;32;20277;-61